createdAt,value
2023-02-02T00:03:42.335Z,99269.50
2023-02-02T00:11:04.248Z,99265.69
2023-02-02T00:18:30.899Z,99268.41
2023-02-02T00:26:13.185Z,99273.47
2023-02-02T00:33:35.476Z,99290.81
2023-02-02T00:40:55.111Z,99299.00
2023-02-02T00:48:13.685Z,99293.16
2023-02-02T00:55:32.833Z,99282.22
2023-02-02T01:02:52.802Z,99301.56
2023-02-02T01:10:16.651Z,99298.69
2023-02-02T01:17:35.287Z,99293.91
2023-02-02T01:24:55.102Z,99306.38
2023-02-02T01:32:14.058Z,99314.59
2023-02-02T01:39:34.265Z,99299.13
2023-02-02T01:46:56.193Z,99289.41
2023-02-02T01:54:17.313Z,99294.38
2023-02-02T02:01:36.333Z,99292.63
2023-02-02T02:08:58.427Z,99287.66
2023-02-02T02:16:21.728Z,99278.13
2023-02-02T02:24:28.201Z,99265.06
2023-02-02T02:32:07.881Z,99269.09
2023-02-02T02:39:29.755Z,99262.94
2023-02-02T02:46:48.892Z,99270.22
2023-02-02T02:54:10.214Z,99257.09
2023-02-02T03:01:33.440Z,99248.34
2023-02-02T03:08:54.819Z,99251.22
2023-02-02T03:16:16.657Z,99247.00
2023-02-02T03:23:34.977Z,99215.38
2023-02-02T03:30:53.557Z,99208.13
2023-02-02T03:38:13.823Z,99204.97
2023-02-02T03:45:32.263Z,99195.00
2023-02-02T03:52:50.420Z,99184.59
2023-02-02T04:00:15.321Z,99185.41
2023-02-02T04:07:33.498Z,99174.44
2023-02-02T04:14:51.871Z,99184.31
2023-02-02T04:22:11.490Z,99162.69
2023-02-02T04:29:29.868Z,99173.50
2023-02-02T04:36:48.065Z,99173.75
2023-02-02T04:44:15.450Z,99193.34
2023-02-02T04:51:33.594Z,99174.44
2023-02-02T04:58:55.937Z,99166.09
2023-02-02T05:06:17.454Z,99174.16
2023-02-02T05:13:35.840Z,99176.38
2023-02-02T05:20:55.133Z,99174.16
2023-02-02T05:28:14.723Z,99169.25
2023-02-02T05:35:32.934Z,99176.63
2023-02-02T05:42:51.111Z,99183.06
2023-02-02T05:50:11.788Z,99193.06
2023-02-02T05:57:30.063Z,99186.09
2023-02-02T06:04:48.327Z,99201.03
2023-02-02T06:12:08.856Z,99215.41
2023-02-02T06:19:27.050Z,99215.50
2023-02-02T06:26:45.310Z,99226.06
2023-02-02T06:34:05.204Z,99224.69
2023-02-02T06:41:23.651Z,99244.56
2023-02-02T06:48:41.924Z,99253.44
2023-02-02T06:56:02.980Z,99243.56
2023-02-02T07:03:22.945Z,99267.00
2023-02-02T07:11:13.447Z,99276.44
2023-02-02T07:18:23.008Z,99273.56
2023-02-02T07:25:43.610Z,99275.50
2023-02-02T07:33:02.073Z,99297.81
2023-02-02T07:40:22.284Z,99316.44
2023-02-02T07:47:40.486Z,99336.81
2023-02-02T07:55:13.553Z,99339.16
2023-02-02T08:02:34.283Z,99349.69
2023-02-02T08:09:53.029Z,99345.09
2023-02-02T08:17:11.392Z,99387.84
2023-02-02T08:24:31.059Z,99393.56
2023-02-02T08:31:49.625Z,99402.28
2023-02-02T08:39:11.455Z,99424.69
2023-02-02T08:46:31.070Z,99463.13
2023-02-02T08:53:49.746Z,99458.28
2023-02-02T09:01:09.005Z,99468.66
2023-02-02T09:08:28.663Z,99465.50
2023-02-02T09:15:46.973Z,99519.41
2023-02-02T09:23:05.315Z,99509.78
2023-02-02T09:30:24.984Z,99537.91
2023-02-02T09:37:44.339Z,99562.22
2023-02-02T09:45:07.123Z,99563.72
2023-02-02T09:52:29.510Z,99559.66
2023-02-02T09:59:49.452Z,99554.59
2023-02-02T10:07:11.273Z,99561.69
2023-02-02T10:14:36.817Z,99569.75
2023-02-02T10:22:01.804Z,99585.06
2023-02-02T10:29:46.995Z,99571.84
2023-02-02T10:37:22.705Z,99589.09
2023-02-02T10:44:48.972Z,99597.47
2023-02-02T10:52:15.999Z,99611.59
2023-02-02T10:59:38.091Z,99621.19
2023-02-02T11:06:59.810Z,99615.16
2023-02-02T11:14:23.404Z,99637.91
2023-02-02T11:21:41.661Z,99648.59
2023-02-02T11:29:01.309Z,99656.63
2023-02-02T11:36:21.632Z,99645.28
2023-02-02T11:43:42.166Z,99645.28
2023-02-02T11:51:02.580Z,99670.19
2023-02-02T11:58:25.064Z,99690.44
2023-02-02T12:05:46.753Z,99690.84
2023-02-02T12:13:10.519Z,99709.53
2023-02-02T12:20:34.608Z,99718.88
2023-02-02T12:27:57.519Z,99748.00
2023-02-02T12:35:28.273Z,99747.47
2023-02-02T12:42:54.793Z,99758.69
2023-02-02T12:50:26.327Z,99769.66
2023-02-02T12:57:52.563Z,99779.41
2023-02-02T13:05:26.882Z,99795.00
2023-02-02T13:12:49.636Z,99801.28
2023-02-02T13:20:15.875Z,99811.66
2023-02-02T13:27:35.999Z,99833.00
2023-02-02T13:34:57.667Z,99842.78
2023-02-02T13:42:26.188Z,99862.97
2023-02-02T13:49:48.692Z,99870.38
2023-02-02T13:57:19.381Z,99874.66
2023-02-02T14:04:37.903Z,99881.13
2023-02-02T14:12:00.231Z,99888.25
2023-02-02T14:19:42.258Z,99887.56
2023-02-02T14:27:02.817Z,99907.66
2023-02-02T14:34:34.400Z,99917.72
2023-02-02T14:42:34.933Z,99951.22
2023-02-02T14:49:57.751Z,99963.81
2023-02-02T14:57:36.242Z,99970.78
2023-02-02T15:05:41.878Z,99989.72
2023-02-02T15:13:06.538Z,100008.25
2023-02-02T15:20:29.569Z,100021.25
2023-02-02T15:27:56.987Z,100034.03
2023-02-02T15:35:20.494Z,100049.97
2023-02-02T15:42:54.974Z,100076.44
2023-02-02T15:50:20.680Z,100091.91
2023-02-02T15:57:40.677Z,100127.53
2023-02-02T16:04:58.773Z,100152.09
2023-02-02T16:12:20.163Z,100180.25
2023-02-02T16:19:38.683Z,100203.06
2023-02-02T16:26:59.743Z,100226.16
2023-02-02T16:43:21.159Z,100267.94
2023-02-02T16:50:39.673Z,100275.88
2023-02-02T16:57:58.417Z,100299.97
2023-02-02T17:05:23.529Z,100315.16
2023-02-02T17:12:42.331Z,100334.69
2023-02-02T17:20:01.212Z,100335.44
2023-02-02T17:27:26.713Z,100372.50
2023-02-02T17:34:46.194Z,100383.50
2023-02-02T17:42:04.463Z,100416.84
2023-02-02T17:49:24.551Z,100433.97
2023-02-02T17:56:43.036Z,100440.22
2023-02-02T18:13:21.326Z,100468.13
2023-02-02T18:20:42.608Z,100494.72
2023-02-02T18:28:00.742Z,100497.03
2023-02-02T18:35:20.350Z,100514.38
2023-02-02T18:42:38.689Z,100525.03
2023-02-02T18:49:57.191Z,100542.81
2023-02-02T18:57:17.468Z,100562.09
2023-02-02T19:04:36.056Z,100568.75
2023-02-02T19:11:55.070Z,100588.75
2023-02-02T19:19:22.338Z,100598.31
2023-02-02T19:26:43.009Z,100613.59
2023-02-02T19:43:36.625Z,100636.16
2023-02-02T19:50:56.170Z,100645.13
2023-02-02T19:58:20.030Z,100652.16
2023-02-02T20:05:42.052Z,100669.88
2023-02-02T20:13:01.108Z,100674.34
2023-02-02T20:20:26.017Z,100709.81
2023-02-02T20:27:45.909Z,100715.72
2023-02-02T20:35:21.787Z,100718.03
2023-02-02T20:42:40.232Z,100733.94
2023-02-02T20:50:01.311Z,100751.66
2023-02-02T20:57:20.583Z,100754.19
2023-02-02T21:04:39.287Z,100748.06
2023-02-02T21:11:59.693Z,100752.28
2023-02-02T21:19:19.523Z,100737.19
2023-02-02T21:26:39.008Z,100751.94
2023-02-02T21:43:33.615Z,100751.06
2023-02-02T21:50:51.776Z,100756.19
2023-02-02T21:58:16.540Z,100754.66
2023-02-02T22:05:37.888Z,100742.69
2023-02-02T22:12:56.016Z,100757.50
2023-02-02T22:20:29.698Z,100758.47
2023-02-02T22:27:51.288Z,100762.06
2023-02-02T22:35:10.120Z,100761.25
2023-02-02T22:42:28.388Z,100769.25
2023-02-02T22:49:47.898Z,100769.91
2023-02-02T22:57:06.329Z,100778.63
2023-02-02T23:04:24.599Z,100781.63
2023-02-02T23:11:44.274Z,100790.38
2023-02-02T23:19:02.389Z,100796.84
2023-02-02T23:26:20.972Z,100810.38
2023-02-02T23:33:40.844Z,100804.44
2023-02-02T23:41:00.454Z,100802.06
2023-02-02T23:48:18.743Z,100801.22
2023-02-02T23:55:38.593Z,100795.41
